Time;durP1;ratioP1;P1;durP2;ratioP2;P2;SDS_P1;SDS_P2;PMS_P1;PMS_P2;Temp;Humidity;BMP_temperature;BMP_pressure;BME280_temperature;BME280_humidity;BME280_pressure;Samples;Min_cycle;Max_cycle;Signal;HPM_P1;HPM_P2
2021/07/10 00:01:15;;;;;;;9.27;6.40;;;589.40;2432.00;;;;;;5072865;28;20035;-70
2021/07/10 00:03:41;;;;;;;10.10;6.70;;;589.40;2432.00;;;;;;5072461;28;20017;-69
2021/07/10 00:06:07;;;;;;;9.82;6.95;;;589.40;2432.00;;;;;;5071561;28;20077;-71
2021/07/10 00:08:33;;;;;;;11.65;6.70;;;589.50;2432.00;;;;;;5072541;28;20364;-70
2021/07/10 00:10:59;;;;;;;11.10;6.43;;;589.50;2432.00;;;;;;5072637;28;20540;-69
2021/07/10 00:13:25;;;;;;;9.00;6.60;;;589.40;2432.00;;;;;;5072391;28;20049;-69
2021/07/10 00:15:50;;;;;;;11.82;7.03;;;589.40;2432.00;;;;;;5072696;28;20024;-72
2021/07/10 00:18:16;;;;;;;8.60;6.55;;;589.40;2432.00;;;;;;5072628;28;20032;-72
2021/07/10 00:20:43;;;;;;;9.98;6.43;;;589.40;2432.00;;;;;;5072548;28;20021;-73
2021/07/10 00:23:09;;;;;;;10.23;6.63;;;589.50;2432.00;;;;;;5072552;28;20048;-70
2021/07/10 00:25:35;;;;;;;11.85;6.22;;;589.50;2432.00;;;;;;5072311;28;20486;-69
2021/07/10 00:28:00;;;;;;;10.43;7.18;;;589.50;2432.00;;;;;;5072320;28;20490;-72
2021/07/10 00:30:27;;;;;;;19.48;10.60;;;589.50;2432.00;;;;;;5072520;28;20032;-72
2021/07/10 00:32:53;;;;;;;18.25;11.65;;;589.40;2432.00;;;;;;5072678;28;20024;-70
2021/07/10 00:35:19;;;;;;;21.30;13.70;;;589.30;2432.00;;;;;;5072265;28;20025;-70
2021/07/10 00:37:46;;;;;;;19.88;12.18;;;589.20;2432.00;;;;;;5072815;28;20033;-69
2021/07/10 00:40:12;;;;;;;19.23;12.57;;;589.10;2432.00;;;;;;5071164;28;20099;-70
2021/07/10 00:42:38;;;;;;;12.98;9.13;;;589.10;2432.00;;;;;;5072132;28;20533;-70
2021/07/10 00:45:08;;;;;;;14.02;9.13;;;589.00;2432.00;;;;;;5072355;28;20471;-71
2021/07/10 00:47:34;;;;;;;12.13;8.33;;;589.00;2432.00;;;;;;5076273;28;20024;-69
2021/07/10 00:50:00;;;;;;;11.45;8.68;;;589.00;2432.00;;;;;;5076198;28;20019;-69
2021/07/10 00:52:26;;;;;;;13.88;8.68;;;589.00;2432.00;;;;;;5076709;28;20024;-69
2021/07/10 00:54:53;;;;;;;13.10;8.98;;;589.00;2432.00;;;;;;5076199;28;20027;-70
2021/07/10 00:57:18;;;;;;;17.65;10.25;;;588.80;2432.00;;;;;;5076208;28;20029;-70
2021/07/10 00:59:46;;;;;;;17.63;9.95;;;588.80;2432.00;;;;;;5076142;28;20037;-70
2021/07/10 01:02:12;;;;;;;16.48;10.52;;;564.10;2432.00;;;;;;5076294;28;20016;-75
2021/07/10 01:04:38;;;;;;;12.90;8.95;;;564.10;2432.00;;;;;;5076296;28;20093;-75
2021/07/10 01:07:04;;;;;;;14.43;9.18;;;564.10;2432.00;;;;;;5076141;28;20024;-78
2021/07/10 01:09:31;;;;;;;13.13;8.70;;;564.10;2432.00;;;;;;5076299;28;20039;-74
2021/07/10 01:11:57;;;;;;;9.65;7.65;;;564.00;2432.00;;;;;;5076182;28;20099;-74
2021/07/10 01:14:24;;;;;;;12.77;7.65;;;564.00;2432.00;;;;;;5076026;28;20487;-75
2021/07/10 01:16:50;;;;;;;13.00;7.68;;;564.00;2432.00;;;;;;5075848;28;20039;-72
2021/07/10 01:19:26;;;;;;;14.43;8.15;;;563.90;2432.00;;;;;;5075870;28;20020;-71
2021/07/10 01:21:56;;;;;;;28.95;13.50;;;563.80;2432.00;;;;;;5060178;28;20147;-71
2021/07/10 01:24:23;;;;;;;25.33;15.30;;;563.90;2432.00;;;;;;5075916;28;20107;-70
2021/07/10 01:26:49;;;;;;;22.60;14.68;;;563.80;2432.00;;;;;;5075422;28;20136;-70
2021/07/10 01:29:15;;;;;;;19.48;11.07;;;563.80;2432.00;;;;;;5075564;28;20013;-71
2021/07/10 01:31:41;;;;;;;12.82;8.15;;;563.80;2432.00;;;;;;5075476;28;20031;-69
2021/07/10 01:34:07;;;;;;;11.80;7.22;;;563.80;2432.00;;;;;;5075527;28;20431;-72
2021/07/10 01:36:34;;;;;;;10.50;7.30;;;563.70;2432.00;;;;;;5075508;28;20091;-70
2021/07/10 01:39:00;;;;;;;11.27;7.20;;;563.60;2432.00;;;;;;5075357;28;20024;-75
2021/07/10 01:41:26;;;;;;;10.68;7.82;;;563.50;2432.00;;;;;;5075666;28;20481;-75
2021/07/10 01:43:52;;;;;;;12.52;7.63;;;563.60;2432.00;;;;;;5075236;28;20056;-78
2021/07/10 01:46:18;;;;;;;12.90;7.78;;;563.60;2432.00;;;;;;5075514;28;20115;-80
2021/07/10 01:48:45;;;;;;;10.60;7.82;;;563.60;2432.00;;;;;;5075412;28;20013;-80
2021/07/10 01:51:11;;;;;;;11.90;7.68;;;563.60;2432.00;;;;;;5075465;28;20020;-80
2021/07/10 01:53:36;;;;;;;12.43;7.78;;;563.50;2432.00;;;;;;5075457;28;20029;-80
2021/07/10 01:56:02;;;;;;;12.27;7.68;;;563.50;2432.00;;;;;;5075185;28;20032;-71
2021/07/10 01:58:28;;;;;;;12.15;7.25;;;563.50;2432.00;;;;;;5075036;28;20033;-75
2021/07/10 02:00:54;;;;;;;12.57;7.20;;;563.50;2432.00;;;;;;5075101;28;20024;-73
2021/07/10 02:03:20;;;;;;;11.73;7.28;;;563.50;2432.00;;;;;;5075065;28;20052;-74
2021/07/10 02:05:45;;;;;;;11.85;7.78;;;563.50;2432.00;;;;;;5074850;28;20035;-75
2021/07/10 02:08:11;;;;;;;12.00;7.53;;;563.40;2432.00;;;;;;5075211;28;20019;-77
2021/07/10 02:10:37;;;;;;;12.55;7.43;;;563.50;2432.00;;;;;;5075251;28;20082;-74
2021/07/10 02:13:08;;;;;;;10.27;7.68;;;563.50;2432.00;;;;;;5075275;28;20100;-79
2021/07/10 02:15:35;;;;;;;12.90;7.78;;;563.60;2432.00;;;;;;5075213;28;20030;-76
2021/07/10 02:18:01;;;;;;;12.43;7.80;;;563.50;2432.00;;;;;;5075141;28;20379;-75
2021/07/10 02:20:27;;;;;;;10.57;7.30;;;563.60;2432.00;;;;;;5075197;28;20061;-75
2021/07/10 02:22:53;;;;;;;10.52;7.05;;;563.70;2432.00;;;;;;5074996;28;20587;-81
2021/07/10 02:25:21;;;;;;;9.57;7.15;;;563.70;2432.00;;;;;;5075265;28;20023;-83
2021/07/10 02:27:48;;;;;;;11.13;6.85;;;563.70;2432.00;;;;;;5075075;28;20082;-81
2021/07/10 02:30:16;;;;;;;12.73;6.53;;;563.60;2432.00;;;;;;5075397;28;20114;-81
2021/07/10 02:32:43;;;;;;;10.02;6.60;;;563.60;2432.00;;;;;;5075364;28;20129;-81
2021/07/10 02:35:10;;;;;;;8.90;6.43;;;563.50;2432.00;;;;;;5073449;28;20017;-79
2021/07/10 02:37:37;;;;;;;10.27;6.63;;;563.50;2432.00;;;;;;5075044;28;20032;-79
2021/07/10 02:40:06;;;;;;;11.35;6.57;;;563.40;2432.00;;;;;;5074455;28;20027;-80
2021/07/10 02:42:32;;;;;;;7.80;6.03;;;563.40;2432.00;;;;;;5074277;28;20422;-79
2021/07/10 02:44:58;;;;;;;12.35;6.45;;;563.40;2432.00;;;;;;5074385;28;20047;-81
2021/07/10 02:47:24;;;;;;;9.20;6.57;;;563.40;2432.00;;;;;;5074669;28;20093;-80
2021/07/10 02:49:50;;;;;;;9.27;6.63;;;563.30;2432.00;;;;;;5074448;28;20024;-81
2021/07/10 02:52:16;;;;;;;9.68;6.45;;;563.30;2432.00;;;;;;5072901;28;20106;-82
2021/07/10 02:54:42;;;;;;;10.13;6.50;;;563.40;2432.00;;;;;;5074282;28;20021;-81
2021/07/10 02:57:07;;;;;;;11.65;7.10;;;563.40;2432.00;;;;;;5074035;28;20036;-82
2021/07/10 02:59:33;;;;;;;11.10;6.18;;;563.20;2432.00;;;;;;5074050;28;20100;-83
2021/07/10 03:01:59;;;;;;;10.25;6.47;;;563.30;2432.00;;;;;;5073998;28;20037;-82
2021/07/10 03:04:25;;;;;;;12.02;6.68;;;563.20;2432.00;;;;;;5074024;28;20020;-80
2021/07/10 03:06:51;;;;;;;12.68;6.90;;;538.50;2406.40;;;;;;5059140;28;20025;-82
2021/07/10 03:09:16;;;;;;;11.77;6.43;;;563.20;2432.00;;;;;;5049443;28;20053;-83
2021/07/10 03:11:43;;;;;;;9.63;6.40;;;538.50;2406.40;;;;;;5040842;28;20021;-82
2021/07/10 03:14:09;;;;;;;11.23;7.00;;;563.20;2432.00;;;;;;5049230;28;20470;-82
2021/07/10 03:16:35;;;;;;;11.77;5.97;;;563.20;2432.00;;;;;;5050683;28;20383;-81
2021/07/10 03:19:01;;;;;;;9.43;5.90;;;563.20;2432.00;;;;;;5047135;28;20029;-79
2021/07/10 03:21:27;;;;;;;8.00;5.78;;;563.20;2432.00;;;;;;5052391;28;20652;-80
2021/07/10 03:23:53;;;;;;;9.02;5.90;;;538.50;2406.40;;;;;;5047515;28;20029;-81
2021/07/10 03:26:18;;;;;;;11.23;6.40;;;538.50;2406.40;;;;;;5042710;28;20392;-83
2021/07/10 03:28:45;;;;;;;11.27;6.38;;;538.50;2406.40;;;;;;5043079;28;20395;-83
2021/07/10 03:31:10;;;;;;;12.10;6.50;;;563.20;2432.00;;;;;;5052261;28;20017;-82
2021/07/10 03:33:38;;;;;;;10.60;6.93;;;563.20;2432.00;;;;;;5054397;28;20597;-82
2021/07/10 03:36:05;;;;;;;14.98;9.32;;;563.20;2432.00;;;;;;5047919;28;20025;-81
2021/07/10 03:38:32;;;;;;;15.00;11.27;;;538.50;2406.40;;;;;;5046442;28;20480;-81
2021/07/10 03:40:58;;;;;;;12.70;6.90;;;538.40;2406.40;;;;;;5052899;28;21144;-81
2021/07/10 03:43:24;;;;;;;20.40;14.90;;;538.40;2406.40;;;;;;5052939;28;20009;-71
2021/07/10 03:45:52;;;;;;;11.35;7.35;;;538.50;2406.40;;;;;;5052648;28;20471;-71
2021/07/10 03:48:19;;;;;;;15.27;8.18;;;538.50;2406.40;;;;;;5052744;28;20500;-80
2021/07/10 03:50:45;;;;;;;19.45;13.05;;;538.50;2406.40;;;;;;5052812;28;20032;-78
2021/07/10 03:53:12;;;;;;;15.60;8.52;;;538.50;2406.40;;;;;;5052377;28;20013;-79
2021/07/10 03:55:39;;;;;;;9.85;6.65;;;538.50;2406.40;;;;;;5052664;28;20045;-81
2021/07/10 03:58:04;;;;;;;12.27;6.18;;;538.50;2406.40;;;;;;5051320;28;20403;-80
2021/07/10 04:00:30;;;;;;;10.05;6.32;;;538.50;2406.40;;;;;;5052712;28;20024;-81
2021/07/10 04:02:56;;;;;;;12.45;6.35;;;563.20;2432.00;;;;;;5052448;28;20070;-81
2021/07/10 04:05:22;;;;;;;12.00;6.72;;;563.20;2432.00;;;;;;5052446;28;20031;-81
2021/07/10 04:07:48;;;;;;;11.07;7.13;;;563.30;2432.00;;;;;;5051060;28;20487;-81
2021/07/10 04:10:15;;;;;;;13.15;7.78;;;563.30;2432.00;;;;;;5052492;28;20021;-81
2021/07/10 04:12:42;;;;;;;11.80;7.57;;;563.30;2432.00;;;;;;5052497;28;20028;-81
2021/07/10 04:15:11;;;;;;;12.95;7.95;;;563.40;2432.00;;;;;;5052311;28;20040;-81
2021/07/10 04:17:37;;;;;;;15.43;7.50;;;563.50;2432.00;;;;;;5052425;28;20112;-80
2021/07/10 04:20:04;;;;;;;14.10;7.60;;;563.60;2432.00;;;;;;5051636;28;20031;-70
2021/07/10 04:22:30;;;;;;;10.38;7.57;;;563.60;2432.00;;;;;;5052099;28;20368;-70
2021/07/10 04:24:55;;;;;;;14.57;7.28;;;563.90;2432.00;;;;;;5052280;28;21071;-71
2021/07/10 04:27:21;;;;;;;11.05;8.20;;;564.00;2432.00;;;;;;5052119;28;20025;-70
2021/07/10 04:29:48;;;;;;;14.40;8.23;;;564.00;2432.00;;;;;;5053893;28;20029;-79
2021/07/10 04:32:17;;;;;;;10.27;7.65;;;564.10;2432.00;;;;;;5057559;28;20025;-79
2021/07/10 04:34:43;;;;;;;16.45;7.97;;;588.80;2432.00;;;;;;5058529;28;20013;-81
2021/07/10 04:37:09;;;;;;;11.45;7.88;;;588.90;2432.00;;;;;;5070098;28;20073;-81
2021/07/10 04:39:35;;;;;;;13.13;8.00;;;589.00;2432.00;;;;;;5055419;28;20057;-81
2021/07/10 04:42:01;;;;;;;11.25;7.72;;;589.00;2432.00;;;;;;5055099;28;20021;-81
2021/07/10 04:44:27;;;;;;;9.90;7.68;;;589.20;2432.00;;;;;;5052416;28;20083;-82
2021/07/10 04:46:53;;;;;;;11.13;7.80;;;589.30;2432.00;;;;;;5058181;28;20028;-82
2021/07/10 04:49:19;;;;;;;13.55;7.80;;;589.40;2432.00;;;;;;5056721;28;20028;-81
2021/07/10 04:51:45;;;;;;;12.63;7.80;;;589.50;2432.00;;;;;;5053932;28;20044;-80
2021/07/10 04:54:10;;;;;;;15.20;7.43;;;589.60;2432.00;;;;;;5054362;28;20025;-82
2021/07/10 04:56:36;;;;;;;12.25;6.97;;;614.80;2432.00;;;;;;5052489;28;20471;-82
2021/07/10 04:59:02;;;;;;;10.60;6.95;;;640.20;2432.00;;;;;;5052956;28;20025;-82
2021/07/10 05:01:28;;;;;;;10.77;6.80;;;666.30;2432.00;;;;;;5051810;28;20495;-82
2021/07/10 05:03:53;;;;;;;11.10;6.85;;;666.30;2432.00;;;;;;5052500;28;20541;-83
2021/07/10 05:06:19;;;;;;;11.32;6.70;;;691.30;2432.00;;;;;;5051635;28;20029;-83
2021/07/10 05:08:45;;;;;;;10.10;6.82;;;743.10;2432.00;;;;;;5053962;28;20021;-82
2021/07/10 05:11:11;;;;;;;8.48;6.28;;;768.60;2432.00;;;;;;5051775;28;20021;-82
2021/07/10 05:13:36;;;;;;;9.05;6.35;;;742.50;2432.00;;;;;;5052506;28;20057;-82
2021/07/10 05:16:02;;;;;;;9.48;7.13;;;742.50;2432.00;;;;;;5053841;28;20024;-82
2021/07/10 05:18:28;;;;;;;9.35;6.90;;;768.10;2432.00;;;;;;5052400;28;20337;-82
2021/07/10 05:20:53;;;;;;;9.05;6.72;;;793.90;2432.00;;;;;;5053398;28;20525;-82
2021/07/10 05:23:19;;;;;;;12.35;6.55;;;819.60;2432.00;;;;;;5052200;28;20017;-82
2021/07/10 05:25:45;;;;;;;11.57;6.80;;;845.50;2432.00;;;;;;5052867;28;20090;-82
2021/07/10 05:28:10;;;;;;;9.35;6.40;;;870.50;2432.00;;;;;;5061722;28;20071;-82
2021/07/10 05:30:36;;;;;;;10.68;6.50;;;921.80;2432.00;;;;;;5054992;28;20372;-82
2021/07/10 05:33:03;;;;;;;10.00;6.38;;;973.20;2201.60;;;;;;5054910;28;20020;-72
2021/07/10 05:35:29;;;;;;;9.55;6.63;;;999.30;1996.80;;;;;;5056073;28;20018;-71
2021/07/10 05:37:56;;;;;;;9.15;5.97;;;1049.60;1868.80;;;;;;5056612;28;20052;-70
2021/07/10 05:40:21;;;;;;;10.23;6.30;;;973.20;1920.00;;;;;;5057470;28;20029;-80
2021/07/10 05:42:48;;;;;;;10.63;6.07;;;896.20;2099.20;;;;;;5056147;28;20483;-82
2021/07/10 05:45:16;;;;;;;10.82;6.05;;;845.20;2252.80;;;;;;5056151;28;20016;-82
2021/07/10 05:47:42;;;;;;;11.55;6.80;;;794.50;2432.00;;;;;;5057070;28;20363;-82
2021/07/10 05:50:09;;;;;;;9.80;6.65;;;768.30;2432.00;;;;;;5056070;28;20066;-82
2021/07/10 05:52:35;;;;;;;9.98;6.13;;;742.60;2432.00;;;;;;5055688;28;20100;-82
2021/07/10 05:55:01;;;;;;;9.52;6.72;;;717.40;2432.00;;;;;;5056317;28;20092;-82
2021/07/10 05:57:27;;;;;;;8.80;6.15;;;717.00;2432.00;;;;;;5062083;28;20115;-82
2021/07/10 05:59:53;;;;;;;10.27;6.47;;;716.80;2432.00;;;;;;5057747;28;20104;-82
2021/07/10 06:02:18;;;;;;;8.32;5.97;;;692.00;2432.00;;;;;;5060057;28;20108;-82
2021/07/10 06:04:44;;;;;;;8.43;5.95;;;691.90;2432.00;;;;;;5057165;28;20032;-82
2021/07/10 06:07:10;;;;;;;9.60;6.50;;;691.70;2432.00;;;;;;5060662;28;20146;-82
2021/07/10 06:09:36;;;;;;;11.02;6.40;;;691.60;2432.00;;;;;;5059468;28;20013;-82
2021/07/10 06:12:02;;;;;;;12.98;6.63;;;691.60;2432.00;;;;;;5058662;28;20087;-82
2021/07/10 06:14:28;;;;;;;10.32;6.28;;;691.40;2432.00;;;;;;5064880;28;20138;-82
2021/07/10 06:16:54;;;;;;;10.75;6.90;;;691.40;2432.00;;;;;;5058823;28;20122;-81
2021/07/10 06:19:19;;;;;;;10.48;7.32;;;691.30;2432.00;;;;;;5057830;28;20024;-82
2021/07/10 06:21:45;;;;;;;10.88;7.60;;;691.20;2432.00;;;;;;5057060;28;20032;-82
2021/07/10 06:24:11;;;;;;;10.85;7.65;;;691.20;2432.00;;;;;;5060339;28;20096;-82
2021/07/10 06:26:37;;;;;;;11.82;7.90;;;666.40;2432.00;;;;;;5057948;28;20025;-82
2021/07/10 06:29:03;;;;;;;11.23;7.95;;;666.50;2432.00;;;;;;5061335;28;20013;-82
2021/07/10 06:31:29;;;;;;;9.93;7.82;;;666.50;2432.00;;;;;;5058247;28;20013;-82
2021/07/10 06:33:55;;;;;;;12.25;8.23;;;691.20;2432.00;;;;;;5060351;28;20048;-82
2021/07/10 06:36:20;;;;;;;11.73;8.73;;;691.20;2432.00;;;;;;5057390;28;20017;-82
2021/07/10 06:38:46;;;;;;;15.18;8.85;;;691.40;2432.00;;;;;;5063750;28;20078;-82
2021/07/10 06:41:12;;;;;;;11.82;9.20;;;691.60;2432.00;;;;;;5066604;28;20025;-82
2021/07/10 06:43:38;;;;;;;12.18;7.97;;;691.90;2432.00;;;;;;5059139;28;20029;-82
2021/07/10 06:46:07;;;;;;;12.00;8.52;;;692.10;2432.00;;;;;;5055414;28;20027;-82
2021/07/10 06:48:34;;;;;;;10.20;7.38;;;716.80;2432.00;;;;;;5054604;28;20092;-82
2021/07/10 06:50:59;;;;;;;10.02;7.35;;;717.10;2432.00;;;;;;5056208;28;20021;-82
2021/07/10 06:53:25;;;;;;;10.55;6.90;;;717.40;2432.00;;;;;;5066272;28;20387;-83
2021/07/10 06:55:52;;;;;;;11.20;7.28;;;717.40;2432.00;;;;;;5058562;28;20014;-82
2021/07/10 06:58:19;;;;;;;9.18;6.50;;;717.50;2432.00;;;;;;5066970;28;20039;-82
2021/07/10 07:00:46;;;;;;;10.07;6.45;;;742.40;2432.00;;;;;;5065210;28;20077;-82
2021/07/10 07:03:11;;;;;;;7.70;6.30;;;742.60;2432.00;;;;;;5055887;28;20036;-83
2021/07/10 07:05:37;;;;;;;7.63;5.80;;;742.80;2432.00;;;;;;5058172;28;20024;-83
2021/07/10 07:08:03;;;;;;;9.18;5.80;;;742.90;2432.00;;;;;;5061520;28;20063;-71
2021/07/10 07:10:29;;;;;;;9.07;5.90;;;743.00;2432.00;;;;;;5057099;28;20100;-71
2021/07/10 07:12:55;;;;;;;10.00;5.60;;;743.10;2432.00;;;;;;5057887;28;20045;-71
2021/07/10 07:15:20;;;;;;;8.95;5.15;;;768.10;2432.00;;;;;;5053930;28;20491;-71
2021/07/10 07:17:46;;;;;;;9.25;5.30;;;768.50;2432.00;;;;;;5061229;28;20051;-72
2021/07/10 07:20:14;;;;;;;7.88;4.70;;;793.70;2432.00;;;;;;5058971;28;20028;-72
2021/07/10 07:22:50;;;;;;;6.28;4.57;;;819.60;2432.00;;;;;;5056325;28;20034;-71
2021/07/10 07:25:17;;;;;;;8.05;4.70;;;896.60;2432.00;;;;;;5059217;28;20125;-71
2021/07/10 07:27:43;;;;;;;9.85;4.93;;;1024.20;2022.40;;;;;;5053970;28;20402;-71
2021/07/10 07:30:10;;;;;;;7.50;4.90;;;1100.90;1740.80;;;;;;5055435;28;20033;-71
2021/07/10 07:32:36;;;;;;;8.02;4.50;;;1101.20;1638.40;;;;;;5054057;28;20577;-71
2021/07/10 07:35:04;;;;;;;8.20;4.50;;;1126.90;1536.00;;;;;;5057781;28;20016;-71
2021/07/10 07:37:29;;;;;;;7.75;4.40;;;1178.20;1382.40;;;;;;5054945;28;20041;-71
2021/07/10 07:39:55;;;;;;;7.68;4.20;;;1178.10;1382.40;;;;;;5058683;28;20517;-72
2021/07/10 07:42:21;;;;;;;6.65;4.32;;;1178.00;1356.80;;;;;;5056380;28;20083;-72
2021/07/10 07:44:47;;;;;;;7.65;4.57;;;1101.70;1408.00;;;;;;5066330;28;20126;-73
2021/07/10 07:47:15;;;;;;;6.55;4.40;;;1024.20;1536.00;;;;;;5060043;28;20021;-72
2021/07/10 07:49:41;;;;;;;7.63;4.57;;;973.20;1612.80;;;;;;5058925;28;20104;-72
2021/07/10 07:52:07;;;;;;;6.88;4.30;;;947.30;1638.40;;;;;;5056665;28;20150;-72
2021/07/10 07:54:34;;;;;;;7.13;4.22;;;922.30;1689.60;;;;;;5059489;28;20467;-72
2021/07/10 07:57:00;;;;;;;6.93;4.25;;;948.10;1664.00;;;;;;5059174;28;20418;-72
2021/07/10 07:59:26;;;;;;;8.30;4.50;;;1024.50;1561.60;;;;;;5048220;28;20021;-73
2021/07/10 08:01:52;;;;;;;7.40;4.28;;;1101.60;1459.20;;;;;;5058500;28;20083;-77
2021/07/10 08:04:18;;;;;;;7.22;4.65;;;1177.80;1331.20;;;;;;5058119;28;20066;-79
2021/07/10 08:06:43;;;;;;;11.10;4.20;;;1228.80;1331.20;;;;;;5058654;28;20453;-81
2021/07/10 08:09:10;;;;;;;6.75;4.13;;;1255.00;1280.00;;;;;;5058538;28;20024;-83
2021/07/10 08:11:36;;;;;;;6.90;4.32;;;1280.70;1228.80;;;;;;5056795;28;20028;-84
2021/07/10 08:14:02;;;;;;;4.80;4.15;;;1306.50;1177.60;;;;;;5059712;28;20037;-81
2021/07/10 08:16:27;;;;;;;6.97;4.05;;;1331.40;1177.60;;;;;;5057589;28;20036;-81
2021/07/10 08:18:54;;;;;;;7.18;4.30;;;1331.70;1177.60;;;;;;5053673;28;20048;-73
2021/07/10 08:21:20;;;;;;;5.80;4.20;;;1332.10;1152.00;;;;;;5054775;28;20063;-72
2021/07/10 08:23:47;;;;;;;8.00;4.30;;;1356.80;1152.00;;;;;;5056456;28;20432;-73
2021/07/10 08:26:13;;;;;;;5.68;4.30;;;1357.10;1152.00;;;;;;5054748;28;20017;-73
2021/07/10 08:28:39;;;;;;;5.13;4.18;;;1357.40;1126.40;;;;;;5051344;28;20337;-73
2021/07/10 08:31:05;;;;;;;8.60;4.60;;;1357.10;1126.40;;;;;;5053765;28;20476;-73
2021/07/10 08:33:32;;;;;;;7.63;4.53;;;1357.40;1152.00;;;;;;5062855;28;20031;-72
2021/07/10 08:35:58;;;;;;;5.50;3.90;;;1357.10;1126.40;;;;;;5052836;28;20021;-73
2021/07/10 08:38:24;;;;;;;5.85;4.10;;;1356.80;1152.00;;;;;;5056383;28;20055;-73
2021/07/10 08:40:51;;;;;;;9.55;4.50;;;1357.10;1152.00;;;;;;5054893;28;20025;-70
2021/07/10 08:43:18;;;;;;;7.05;4.00;;;1357.10;1152.00;;;;;;5054111;28;20451;-70
2021/07/10 08:45:48;;;;;;;7.43;4.13;;;1357.40;1152.00;;;;;;5059528;28;20484;-73
2021/07/10 08:48:14;;;;;;;5.35;4.10;;;1357.40;1152.00;;;;;;5052791;28;20037;-71
2021/07/10 08:50:40;;;;;;;7.05;4.35;;;1357.70;1126.40;;;;;;5057828;28;20036;-70
2021/07/10 08:53:06;;;;;;;6.82;4.10;;;1356.90;1126.40;;;;;;5053190;28;20123;-70
2021/07/10 08:55:33;;;;;;;7.65;4.05;;;1356.90;1152.00;;;;;;5054215;28;20020;-69
2021/07/10 08:57:59;;;;;;;6.10;4.07;;;1331.20;1100.80;;;;;;5053451;28;20471;-71
2021/07/10 09:00:34;;;;;;;5.75;4.18;;;1255.10;1152.00;;;;;;5049739;28;20146;-70
2021/07/10 09:03:00;;;;;;;6.35;4.18;;;1203.80;1203.20;;;;;;5049535;28;20487;-68
2021/07/10 09:05:27;;;;;;;5.90;4.30;;;1152.10;1254.40;;;;;;5037584;28;20029;-70
2021/07/10 09:08:25;;;;;;;5.30;4.10;;;1101.40;1280.00;;;;;;5043532;28;20107;-72
2021/07/10 09:10:57;;;;;;;10.07;4.35;;;1050.50;1331.20;;;;;;5049956;28;20104;-71
2021/07/10 09:13:33;;;;;;;5.63;4.00;;;1024.20;1382.40;;;;;;5050908;28;20164;-70
2021/07/10 09:16:01;;;;;;;6.78;4.60;;;998.60;1433.60;;;;;;5042082;28;20069;-72
2021/07/10 09:18:36;;;;;;;5.85;4.55;;;973.40;1459.20;;;;;;5039881;28;20052;-69
2021/07/10 09:21:02;;;;;;;5.80;4.50;;;973.00;1484.80;;;;;;5042236;28;20020;-69
2021/07/10 09:23:38;;;;;;;6.38;4.45;;;948.00;1484.80;;;;;;5038184;28;20025;-69
2021/07/10 09:26:20;;;;;;;6.20;4.30;;;947.50;1510.40;;;;;;5041173;28;20051;-70
2021/07/10 09:29:17;;;;;;;6.85;4.45;;;922.50;1510.40;;;;;;5049011;28;20030;-71
2021/07/10 09:32:05;;;;;;;7.45;4.40;;;922.20;1536.00;;;;;;5055459;28;20483;-71
2021/07/10 09:34:39;;;;;;;9.85;4.32;;;922.00;1536.00;;;;;;5050332;28;20040;-71
2021/07/10 09:37:11;;;;;;;9.07;4.25;;;921.80;1561.60;;;;;;5055897;28;20040;-71
2021/07/10 09:39:43;;;;;;;6.97;4.30;;;921.80;1587.20;;;;;;5051333;28;20051;-69
2021/07/10 09:42:14;;;;;;;5.88;4.03;;;896.90;1536.00;;;;;;5048874;28;20049;-70
2021/07/10 09:44:49;;;;;;;5.97;4.63;;;896.70;1561.60;;;;;;5054607;28;20036;-69
2021/07/10 09:47:23;;;;;;;6.38;4.40;;;896.50;1587.20;;;;;;5040643;28;20021;-69
2021/07/10 09:49:49;;;;;;;6.07;4.13;;;896.40;1561.60;;;;;;5045214;28;20101;-70
2021/07/10 09:52:19;;;;;;;8.82;4.60;;;896.30;1587.20;;;;;;5047929;28;20139;-69
2021/07/10 09:54:46;;;;;;;7.35;4.75;;;896.30;1587.20;;;;;;5049112;28;20013;-70
2021/07/10 09:57:20;;;;;;;6.10;4.18;;;896.30;1587.20;;;;;;5047899;28;20028;-69
2021/07/10 09:59:49;;;;;;;6.68;4.68;;;896.20;1587.20;;;;;;5046191;28;20048;-69
2021/07/10 10:02:18;;;;;;;7.75;5.57;;;896.20;1612.80;;;;;;5047098;28;20025;-69
2021/07/10 10:04:44;;;;;;;6.90;4.35;;;896.00;1612.80;;;;;;5046216;28;20047;-69
2021/07/10 10:07:17;;;;;;;6.15;4.35;;;871.30;1587.20;;;;;;5058098;28;20055;-70
2021/07/10 10:09:43;;;;;;;8.40;4.30;;;896.00;1612.80;;;;;;5056439;28;20531;-70
2021/07/10 10:12:15;;;;;;;6.90;4.20;;;896.00;1612.80;;;;;;5057254;28;20036;-70
2021/07/10 10:14:57;;;;;;;9.50;4.50;;;871.30;1536.00;;;;;;5052549;28;20040;-71
2021/07/10 10:17:25;;;;;;;8.65;3.72;;;896.00;1561.60;;;;;;5039797;28;20540;-70
2021/07/10 10:19:51;;;;;;;6.50;4.00;;;871.30;1408.00;;;;;;5053169;28;20034;-71
2021/07/10 10:22:18;;;;;;;7.38;4.00;;;871.10;1484.80;;;;;;5036781;28;20242;-69
2021/07/10 10:24:51;;;;;;;7.70;3.90;;;871.10;1459.20;;;;;;5048420;28;20399;-69
2021/07/10 10:27:17;;;;;;;4.63;3.90;;;871.10;1433.60;;;;;;5061938;28;20025;-68
2021/07/10 10:29:44;;;;;;;6.90;3.90;;;871.00;1433.60;;;;;;5051148;28;20104;-72
2021/07/10 10:32:11;;;;;;;6.47;4.13;;;870.90;1433.60;;;;;;5063002;28;20540;-70
2021/07/10 10:34:39;;;;;;;6.53;4.20;;;870.90;1459.20;;;;;;5044943;28;20029;-69
2021/07/10 10:37:08;;;;;;;5.25;3.80;;;870.70;1433.60;;;;;;5060714;28;20383;-69
2021/07/10 10:39:34;;;;;;;5.28;3.78;;;870.70;1433.60;;;;;;5064012;28;20025;-69
2021/07/10 10:42:24;;;;;;;4.90;3.70;;;870.60;1433.60;;;;;;5045000;28;20029;-69
2021/07/10 10:44:56;;;;;;;6.40;3.70;;;845.70;1459.20;;;;;;5035347;28;20041;-69
2021/07/10 10:47:23;;;;;;;7.22;3.92;;;845.70;1433.60;;;;;;5050518;28;20433;-68
2021/07/10 10:49:51;;;;;;;5.78;3.97;;;845.70;1459.20;;;;;;5059711;28;20029;-71
2021/07/10 10:52:40;;;;;;;6.22;4.00;;;870.40;1459.20;;;;;;5064810;28;20024;-71
2021/07/10 10:55:16;;;;;;;5.60;4.05;;;870.50;1459.20;;;;;;5037349;28;20519;-71
2021/07/10 10:57:52;;;;;;;8.20;4.20;;;870.50;1459.20;;;;;;5059736;28;20399;-72
2021/07/10 11:00:27;;;;;;;5.07;3.80;;;870.70;1484.80;;;;;;5062422;28;20029;-69
2021/07/10 11:03:22;;;;;;;6.40;3.90;;;870.60;1433.60;;;;;;5052316;28;20017;-72
2021/07/10 11:05:56;;;;;;;7.40;4.03;;;870.50;1433.60;;;;;;5045108;28;20036;-69
2021/07/10 11:08:48;;;;;;;4.47;3.70;;;870.50;1433.60;;;;;;5067498;28;20104;-70
2021/07/10 11:11:14;;;;;;;6.25;3.70;;;870.60;1433.60;;;;;;5069222;28;20490;-70
2021/07/10 11:13:44;;;;;;;7.03;3.80;;;870.60;1408.00;;;;;;5063923;28;20048;-71
2021/07/10 11:16:16;;;;;;;6.22;3.85;;;870.50;1408.00;;;;;;5042926;28;20100;-71
2021/07/10 11:18:55;;;;;;;7.10;4.20;;;870.70;1408.00;;;;;;5044537;28;20029;-70
2021/07/10 11:21:39;;;;;;;7.67;4.20;;;870.70;1433.60;;;;;;5054029;28;20104;-70
2021/07/10 11:26:54;;;;;;;7.88;4.32;;;870.90;1459.20;;;;;;5054975;28;20082;-71
2021/07/10 11:29:22;;;;;;;6.88;4.20;;;870.90;1433.60;;;;;;5048248;28;20026;-71
2021/07/10 11:31:51;;;;;;;6.10;4.22;;;870.70;1433.60;;;;;;5046032;28;20033;-70
2021/07/10 11:34:44;;;;;;;8.25;4.32;;;870.70;1433.60;;;;;;5043110;28;20440;-71
2021/07/10 11:37:12;;;;;;;7.13;4.68;;;870.90;1408.00;;;;;;5047141;28;20068;-71
2021/07/10 11:39:40;;;;;;;7.15;4.72;;;871.10;1433.60;;;;;;5037524;28;20030;-72
2021/07/10 11:42:18;;;;;;;6.80;4.20;;;896.30;1382.40;;;;;;5048937;28;20036;-72
2021/07/10 11:44:46;;;;;;;5.65;4.05;;;948.10;1280.00;;;;;;5049901;28;20112;-74
2021/07/10 11:47:12;;;;;;;5.82;3.50;;;998.80;1228.80;;;;;;5050396;28;20057;-73
2021/07/10 11:49:41;;;;;;;4.78;3.60;;;1049.70;1203.20;;;;;;5049658;28;20429;-73
2021/07/10 11:52:18;;;;;;;5.75;3.58;;;1050.10;1152.00;;;;;;5048033;28;20113;-71
2021/07/10 11:54:57;;;;;;;6.72;3.47;;;1050.40;1177.60;;;;;;5042118;28;20029;-75
2021/07/10 11:57:26;;;;;;;6.53;3.40;;;1100.80;1152.00;;;;;;5042199;28;20026;-73
2021/07/10 11:59:59;;;;;;;4.88;3.30;;;1101.30;1126.40;;;;;;5044035;28;20051;-73
2021/07/10 12:02:34;;;;;;;5.15;3.53;;;1101.50;1100.80;;;;;;5049212;28;20024;-72
2021/07/10 12:05:12;;;;;;;6.32;3.45;;;1101.70;1100.80;;;;;;5045767;28;20063;-72
2021/07/10 12:08:04;;;;;;;5.53;3.30;;;1126.80;1100.80;;;;;;5046009;28;20030;-71
2021/07/10 12:10:36;;;;;;;4.90;3.38;;;1101.60;1100.80;;;;;;5045872;28;20491;-71
2021/07/10 12:13:03;;;;;;;5.15;3.45;;;1101.50;1100.80;;;;;;5043664;28;20083;-72
2021/07/10 12:15:38;;;;;;;7.63;3.53;;;1126.40;1126.40;;;;;;5050218;28;20029;-72
2021/07/10 12:18:06;;;;;;;6.55;3.67;;;1126.50;1100.80;;;;;;5053872;28;20029;-71